sensor_id;sensor_type;location;lat;lon;timestamp;pressure;altitude;pressure_sealevel;temperature;humidity
48553;BME280;34335;51.566;6.994;2022-07-18T00:01:39;101837.13;;;18.58;43.43
48553;BME280;34335;51.566;6.994;2022-07-18T00:04:04;101837.22;;;18.51;43.29
48553;BME280;34335;51.566;6.994;2022-07-18T00:06:30;101834.63;;;18.50;44.45
48553;BME280;34335;51.566;6.994;2022-07-18T00:08:55;101832.06;;;18.44;43.35
48553;BME280;34335;51.566;6.994;2022-07-18T00:11:21;101835.66;;;18.40;43.71
48553;BME280;34335;51.566;6.994;2022-07-18T00:13:47;101834.91;;;18.31;43.50
48553;BME280;34335;51.566;6.994;2022-07-18T00:16:12;101842.03;;;18.25;43.68
48553;BME280;34335;51.566;6.994;2022-07-18T00:18:38;101839.44;;;18.21;43.84
48553;BME280;34335;51.566;6.994;2022-07-18T00:21:04;101827.31;;;18.13;43.66
48553;BME280;34335;51.566;6.994;2022-07-18T00:23:29;101820.31;;;18.09;43.71
48553;BME280;34335;51.566;6.994;2022-07-18T00:25:54;101823.88;;;18.06;43.79
48553;BME280;34335;51.566;6.994;2022-07-18T00:28:20;101819.56;;;18.00;44.07
48553;BME280;34335;51.566;6.994;2022-07-18T00:30:45;101816.97;;;17.96;44.41
48553;BME280;34335;51.566;6.994;2022-07-18T00:33:11;101817.03;;;17.91;44.20
48553;BME280;34335;51.566;6.994;2022-07-18T00:35:36;101818.84;;;17.86;44.22
48553;BME280;34335;51.566;6.994;2022-07-18T00:38:02;101813.66;;;17.83;43.97
48553;BME280;34335;51.566;6.994;2022-07-18T00:40:28;101814.53;;;17.82;44.73
48553;BME280;34335;51.566;6.994;2022-07-18T00:42:54;101809.34;;;17.75;44.59
48553;BME280;34335;51.566;6.994;2022-07-18T00:45:19;101807.69;;;17.68;44.46
48553;BME280;34335;51.566;6.994;2022-07-18T00:47:45;101806.00;;;17.64;44.42
48553;BME280;34335;51.566;6.994;2022-07-18T00:50:10;101807.81;;;17.59;44.74
48553;BME280;34335;51.566;6.994;2022-07-18T00:52:36;101809.63;;;17.54;44.67
48553;BME280;34335;51.566;6.994;2022-07-18T00:55:04;101806.13;;;17.55;44.81
48553;BME280;34335;51.566;6.994;2022-07-18T00:57:29;101813.22;;;17.48;44.76
48553;BME280;34335;51.566;6.994;2022-07-18T00:59:55;101815.03;;;17.41;44.64
48553;BME280;34335;51.566;6.994;2022-07-18T01:02:39;101816.84;;;17.36;44.73
48553;BME280;34335;51.566;6.994;2022-07-18T01:05:06;101818.63;;;17.34;45.02
48553;BME280;34335;51.566;6.994;2022-07-18T01:07:33;101820.41;;;17.32;45.66
48553;BME280;34335;51.566;6.994;2022-07-18T01:09:59;101821.28;;;17.31;46.19
48553;BME280;34335;51.566;6.994;2022-07-18T01:12:25;101818.75;;;17.22;45.44
48553;BME280;34335;51.566;6.994;2022-07-18T01:14:51;101824.94;;;17.16;45.48
48553;BME280;34335;51.566;6.994;2022-07-18T01:17:18;101821.50;;;17.12;45.24
48553;BME280;34335;51.566;6.994;2022-07-18T01:19:46;101814.50;;;17.11;45.96
48553;BME280;34335;51.566;6.994;2022-07-18T01:22:14;101814.50;;;17.08;45.30
48553;BME280;34335;51.566;6.994;2022-07-18T01:24:40;101811.97;;;17.02;45.73
48553;BME280;34335;51.566;6.994;2022-07-18T01:27:06;101811.97;;;17.01;45.71
48553;BME280;34335;51.566;6.994;2022-07-18T01:29:31;101801.47;;;16.99;45.73
48553;BME280;34335;51.566;6.994;2022-07-18T01:32:03;101805.91;;;16.97;46.02
48553;BME280;34335;51.566;6.994;2022-07-18T01:34:28;101801.50;;;16.97;45.52
48553;BME280;34335;51.566;6.994;2022-07-18T01:36:54;101796.25;;;16.93;45.99
48553;BME280;34335;51.566;6.994;2022-07-18T01:39:19;101797.16;;;16.90;45.44
48553;BME280;34335;51.566;6.994;2022-07-18T01:41:44;101800.66;;;16.94;45.99
48553;BME280;34335;51.566;6.994;2022-07-18T01:44:10;101796.28;;;16.90;46.35
48553;BME280;34335;51.566;6.994;2022-07-18T01:46:35;101799.88;;;16.79;46.09
48553;BME280;34335;51.566;6.994;2022-07-18T01:49:00;101791.19;;;16.74;46.21
48553;BME280;34335;51.566;6.994;2022-07-18T01:51:26;101794.72;;;16.72;46.22
48553;BME280;34335;51.566;6.994;2022-07-18T01:53:56;101791.25;;;16.68;46.49
48553;BME280;34335;51.566;6.994;2022-07-18T01:56:24;101798.25;;;16.66;46.62
48553;BME280;34335;51.566;6.994;2022-07-18T01:58:49;101795.63;;;16.64;46.67
48553;BME280;34335;51.566;6.994;2022-07-18T02:01:15;101790.47;;;16.57;46.64
48553;BME280;34335;51.566;6.994;2022-07-18T02:03:40;101793.13;;;16.54;49.50
48553;BME280;34335;51.566;6.994;2022-07-18T02:06:05;101800.16;;;16.48;47.52
48553;BME280;34335;51.566;6.994;2022-07-18T02:08:31;101796.69;;;16.43;47.46
48553;BME280;34335;51.566;6.994;2022-07-18T02:10:56;101797.59;;;16.41;47.52
48553;BME280;34335;51.566;6.994;2022-07-18T02:13:22;101794.09;;;16.40;50.82
48553;BME280;34335;51.566;6.994;2022-07-18T02:15:47;101799.41;;;16.34;47.95
48553;BME280;34335;51.566;6.994;2022-07-18T02:18:13;101791.53;;;16.31;48.71
48553;BME280;34335;51.566;6.994;2022-07-18T02:20:38;101788.94;;;16.26;48.01
48553;BME280;34335;51.566;6.994;2022-07-18T02:23:04;101786.38;;;16.20;48.07
48553;BME280;34335;51.566;6.994;2022-07-18T02:25:29;101781.13;;;16.17;48.23
48553;BME280;34335;51.566;6.994;2022-07-18T02:27:55;101781.19;;;16.14;48.20
48553;BME280;34335;51.566;6.994;2022-07-18T02:30:20;101786.41;;;16.15;55.76
48553;BME280;34335;51.566;6.994;2022-07-18T02:32:46;101788.94;;;16.28;53.77
48553;BME280;34335;51.566;6.994;2022-07-18T02:35:12;101775.97;;;16.06;48.76
48553;BME280;34335;51.566;6.994;2022-07-18T02:37:38;101770.75;;;16.01;49.05
48553;BME280;34335;51.566;6.994;2022-07-18T02:40:07;101778.66;;;15.97;49.20
48553;BME280;34335;51.566;6.994;2022-07-18T02:42:33;101780.44;;;15.93;49.49
48553;BME280;34335;51.566;6.994;2022-07-18T02:44:58;101784.81;;;15.88;49.44
48553;BME280;34335;51.566;6.994;2022-07-18T02:47:24;101779.56;;;15.83;49.14
48553;BME280;34335;51.566;6.994;2022-07-18T02:49:49;101785.72;;;15.78;49.34
48553;BME280;34335;51.566;6.994;2022-07-18T02:52:14;101790.09;;;15.74;49.58
48553;BME280;34335;51.566;6.994;2022-07-18T02:54:40;101782.28;;;15.69;49.44
48553;BME280;34335;51.566;6.994;2022-07-18T02:57:05;101781.41;;;15.66;50.02
48553;BME280;34335;51.566;6.994;2022-07-18T02:59:31;101780.56;;;15.65;50.08
48553;BME280;34335;51.566;6.994;2022-07-18T03:01:57;101788.44;;;15.65;49.90
48553;BME280;34335;51.566;6.994;2022-07-18T03:04:23;101780.56;;;15.59;50.00
48553;BME280;34335;51.566;6.994;2022-07-18T03:06:48;101772.75;;;15.53;49.93
48553;BME280;34335;51.566;6.994;2022-07-18T03:09:15;101771.00;;;15.49;50.39
48553;BME280;34335;51.566;6.994;2022-07-18T03:11:40;101779.66;;;15.69;57.65
48553;BME280;34335;51.566;6.994;2022-07-18T03:14:06;101777.13;;;15.49;51.15
48553;BME280;34335;51.566;6.994;2022-07-18T03:16:31;101771.06;;;15.41;51.27
48553;BME280;34335;51.566;6.994;2022-07-18T03:18:57;101772.84;;;15.33;52.32
48553;BME280;34335;51.566;6.994;2022-07-18T03:21:22;101769.34;;;15.27;51.40
48553;BME280;34335;51.566;6.994;2022-07-18T03:23:48;101771.09;;;15.25;52.64
48553;BME280;34335;51.566;6.994;2022-07-18T03:26:13;101758.88;;;15.20;51.41
48553;BME280;34335;51.566;6.994;2022-07-18T03:28:38;101762.38;;;15.17;51.40
48553;BME280;34335;51.566;6.994;2022-07-18T03:31:04;101771.13;;;15.18;52.63
48553;BME280;34335;51.566;6.994;2022-07-18T03:33:29;101776.38;;;15.15;51.72
48553;BME280;34335;51.566;6.994;2022-07-18T03:35:55;101776.38;;;15.11;51.89
48553;BME280;34335;51.566;6.994;2022-07-18T03:38:20;101774.63;;;15.06;51.58
48553;BME280;34335;51.566;6.994;2022-07-18T03:40:46;101772.91;;;15.06;53.47
48553;BME280;34335;51.566;6.994;2022-07-18T03:43:11;101774.66;;;15.04;52.15
48553;BME280;34335;51.566;6.994;2022-07-18T03:45:36;101776.44;;;14.99;51.83
48553;BME280;34335;51.566;6.994;2022-07-18T03:48:02;101780.78;;;14.94;52.06
48553;BME280;34335;51.566;6.994;2022-07-18T03:50:27;101772.94;;;14.89;52.19
48553;BME280;34335;51.566;6.994;2022-07-18T03:52:53;101778.16;;;14.86;52.50
48553;BME280;34335;51.566;6.994;2022-07-18T03:55:19;101776.47;;;14.85;52.78
48553;BME280;34335;51.566;6.994;2022-07-18T03:57:44;101778.19;;;14.82;52.61
48553;BME280;34335;51.566;6.994;2022-07-18T04:00:10;101775.59;;;14.78;52.80
48553;BME280;34335;51.566;6.994;2022-07-18T04:02:40;101771.25;;;14.76;52.77
48553;BME280;34335;51.566;6.994;2022-07-18T04:05:06;101772.97;;;14.74;52.73
48553;BME280;34335;51.566;6.994;2022-07-18T04:07:31;101772.09;;;14.76;53.32
48553;BME280;34335;51.566;6.994;2022-07-18T04:09:56;101766.00;;;14.76;53.29
48553;BME280;34335;51.566;6.994;2022-07-18T04:12:22;101768.63;;;14.71;52.99
48553;BME280;34335;51.566;6.994;2022-07-18T04:14:47;101767.72;;;14.68;53.12
48553;BME280;34335;51.566;6.994;2022-07-18T04:17:12;101768.59;;;14.63;53.29
48553;BME280;34335;51.566;6.994;2022-07-18T04:19:37;101766.84;;;14.61;53.66
48553;BME280;34335;51.566;6.994;2022-07-18T04:22:03;101769.44;;;14.59;54.08
48553;BME280;34335;51.566;6.994;2022-07-18T04:24:28;101769.47;;;14.56;53.57
48553;BME280;34335;51.566;6.994;2022-07-18T04:26:53;101771.19;;;14.56;53.90
48553;BME280;34335;51.566;6.994;2022-07-18T04:29:19;101775.56;;;14.57;54.12
48553;BME280;34335;51.566;6.994;2022-07-18T04:31:44;101770.31;;;14.58;54.55
48553;BME280;34335;51.566;6.994;2022-07-18T04:34:09;101779.94;;;14.56;54.35
48553;BME280;34335;51.566;6.994;2022-07-18T04:36:34;101778.19;;;14.55;54.84
48553;BME280;34335;51.566;6.994;2022-07-18T04:39:00;101783.41;;;14.58;55.04
48553;BME280;34335;51.566;6.994;2022-07-18T04:41:25;101772.06;;;14.59;55.03
48553;BME280;34335;51.566;6.994;2022-07-18T04:43:51;101778.19;;;14.60;55.37
48553;BME280;34335;51.566;6.994;2022-07-18T04:46:17;101770.31;;;14.63;55.82
48553;BME280;34335;51.566;6.994;2022-07-18T04:48:42;101771.19;;;14.65;55.59
48553;BME280;34335;51.566;6.994;2022-07-18T04:51:07;101769.47;;;14.69;56.14
48553;BME280;34335;51.566;6.994;2022-07-18T04:53:33;101772.09;;;14.75;56.55
48553;BME280;34335;51.566;6.994;2022-07-18T04:55:58;101777.31;;;14.83;57.51
48553;BME280;34335;51.566;6.994;2022-07-18T04:58:23;101773.81;;;14.91;58.32
48553;BME280;34335;51.566;6.994;2022-07-18T05:00:49;101767.69;;;14.99;58.20
48553;BME280;34335;51.566;6.994;2022-07-18T05:03:14;101770.28;;;15.03;58.16
48553;BME280;34335;51.566;6.994;2022-07-18T05:05:40;101762.41;;;15.19;60.81
48553;BME280;34335;51.566;6.994;2022-07-18T05:08:05;101756.25;;;15.24;58.96
48553;BME280;34335;51.566;6.994;2022-07-18T05:10:31;101755.38;;;15.32;59.62
48553;BME280;34335;51.566;6.994;2022-07-18T05:12:56;101753.56;;;15.43;60.28
48553;BME280;34335;51.566;6.994;2022-07-18T05:15:23;101753.53;;;15.49;59.62
48553;BME280;34335;51.566;6.994;2022-07-18T05:17:49;101752.63;;;15.60;61.59
48553;BME280;34335;51.566;6.994;2022-07-18T05:20:16;101750.00;;;15.63;58.85
48553;BME280;34335;51.566;6.994;2022-07-18T05:22:42;101747.34;;;15.67;59.35
48553;BME280;34335;51.566;6.994;2022-07-18T05:25:09;101749.94;;;15.72;59.28
48553;BME280;34335;51.566;6.994;2022-07-18T05:27:35;101738.50;;;15.78;59.13
48553;BME280;34335;51.566;6.994;2022-07-18T05:30:03;101740.25;;;15.86;58.79
48553;BME280;34335;51.566;6.994;2022-07-18T05:32:29;101738.47;;;15.93;58.76
48553;BME280;34335;51.566;6.994;2022-07-18T05:34:54;101751.41;;;16.13;59.66
48553;BME280;34335;51.566;6.994;2022-07-18T05:37:20;101749.56;;;16.29;59.23
48553;BME280;34335;51.566;6.994;2022-07-18T05:39:45;101738.16;;;16.32;58.19
48553;BME280;34335;51.566;6.994;2022-07-18T05:42:11;101736.25;;;16.51;60.71
48553;BME280;34335;51.566;6.994;2022-07-18T05:44:36;101738.69;;;16.70;60.13
48553;BME280;34335;51.566;6.994;2022-07-18T05:47:02;101734.22;;;16.81;59.53
48553;BME280;34335;51.566;6.994;2022-07-18T05:49:27;101738.44;;;16.97;60.52
48553;BME280;34335;51.566;6.994;2022-07-18T05:51:53;101736.59;;;17.04;60.13
48553;BME280;34335;51.566;6.994;2022-07-18T05:54:18;101730.28;;;17.21;59.22
48553;BME280;34335;51.566;6.994;2022-07-18T05:56:48;101728.31;;;17.37;61.12
48553;BME280;34335;51.566;6.994;2022-07-18T05:59:15;101723.91;;;17.40;60.51
48553;BME280;34335;51.566;6.994;2022-07-18T06:01:40;101712.28;;;17.55;59.74
48553;BME280;34335;51.566;6.994;2022-07-18T06:04:05;101717.31;;;17.71;60.71
48553;BME280;34335;51.566;6.994;2022-07-18T06:06:31;101710.31;;;17.71;59.07
48553;BME280;34335;51.566;6.994;2022-07-18T06:08:56;101714.41;;;17.91;59.97
48553;BME280;34335;51.566;6.994;2022-07-18T06:11:22;101715.25;;;17.93;57.67
48553;BME280;34335;51.566;6.994;2022-07-18T06:13:47;101707.41;;;17.90;57.61
48553;BME280;34335;51.566;6.994;2022-07-18T06:16:12;101717.84;;;17.96;57.57
48553;BME280;34335;51.566;6.994;2022-07-18T06:18:38;101714.84;;;18.19;57.64
48553;BME280;34335;51.566;6.994;2022-07-18T06:21:05;101713.38;;;18.53;57.46
48553;BME280;34335;51.566;6.994;2022-07-18T06:23:30;101717.41;;;18.73;57.25
48553;BME280;34335;51.566;6.994;2022-07-18T06:25:56;101714.56;;;18.85;55.91
48553;BME280;34335;51.566;6.994;2022-07-18T06:28:22;101714.00;;;19.14;56.07
48553;BME280;34335;51.566;6.994;2022-07-18T06:30:47;101711.84;;;19.34;56.22
48553;BME280;34335;51.566;6.994;2022-07-18T06:33:13;101703.63;;;19.48;55.45
48553;BME280;34335;51.566;6.994;2022-07-18T06:35:39;101712.03;;;19.65;54.55
48553;BME280;34335;51.566;6.994;2022-07-18T06:38:05;101716.84;;;19.87;55.32
48553;BME280;34335;51.566;6.994;2022-07-18T06:40:30;101720.38;;;20.22;55.82
48553;BME280;34335;51.566;6.994;2022-07-18T06:42:56;101714.00;;;20.31;48.92
48553;BME280;34335;51.566;6.994;2022-07-18T06:45:21;101713.16;;;20.29;53.37
48553;BME280;34335;51.566;6.994;2022-07-18T06:47:46;101707.00;;;20.63;52.53
48553;BME280;34335;51.566;6.994;2022-07-18T06:50:13;101703.91;;;20.80;53.03
48553;BME280;34335;51.566;6.994;2022-07-18T06:52:39;101704.16;;;21.02;49.70
48553;BME280;34335;51.566;6.994;2022-07-18T06:55:06;101692.13;;;21.22;51.63
48553;BME280;34335;51.566;6.994;2022-07-18T06:57:32;101694.34;;;21.36;50.25
48553;BME280;34335;51.566;6.994;2022-07-18T06:59:57;101698.50;;;21.44;50.55
48553;BME280;34335;51.566;6.994;2022-07-18T07:02:23;101697.38;;;21.52;50.20
48553;BME280;34335;51.566;6.994;2022-07-18T07:04:48;101696.59;;;21.78;48.99
48553;BME280;34335;51.566;6.994;2022-07-18T07:07:14;101692.38;;;21.99;45.49
48553;BME280;34335;51.566;6.994;2022-07-18T07:09:39;101693.06;;;22.31;48.94
48553;BME280;34335;51.566;6.994;2022-07-18T07:12:04;101686.63;;;22.40;48.64
48553;BME280;34335;51.566;6.994;2022-07-18T07:14:30;101690.31;;;22.34;46.95
48553;BME280;34335;51.566;6.994;2022-07-18T07:16:55;101692.22;;;22.56;47.76
48553;BME280;34335;51.566;6.994;2022-07-18T07:19:20;101685.47;;;22.72;46.44
48553;BME280;34335;51.566;6.994;2022-07-18T07:21:45;101688.00;;;22.76;46.71
48553;BME280;34335;51.566;6.994;2022-07-18T07:24:11;101681.72;;;22.78;42.26
48553;BME280;34335;51.566;6.994;2022-07-18T07:26:36;101680.44;;;23.12;47.72
48553;BME280;34335;51.566;6.994;2022-07-18T07:29:02;101679.84;;;23.29;41.87
48553;BME280;34335;51.566;6.994;2022-07-18T07:31:27;101687.06;;;23.48;46.35
48553;BME280;34335;51.566;6.994;2022-07-18T07:33:52;101685.97;;;23.54;45.89
48553;BME280;34335;51.566;6.994;2022-07-18T07:36:18;101681.75;;;23.70;41.15
48553;BME280;34335;51.566;6.994;2022-07-18T07:38:43;101675.59;;;23.90;43.42
48553;BME280;34335;51.566;6.994;2022-07-18T07:41:08;101680.59;;;24.00;40.38
48553;BME280;34335;51.566;6.994;2022-07-18T07:43:34;101674.09;;;24.07;40.24
48553;BME280;34335;51.566;6.994;2022-07-18T07:46:01;101681.13;;;24.08;43.90
48553;BME280;34335;51.566;6.994;2022-07-18T07:48:26;101684.66;;;24.29;43.44
48553;BME280;34335;51.566;6.994;2022-07-18T07:50:52;101677.97;;;24.60;43.15
48553;BME280;34335;51.566;6.994;2022-07-18T07:53:17;101680.19;;;24.71;38.79
48553;BME280;34335;51.566;6.994;2022-07-18T07:55:43;101665.09;;;25.29;43.54
48553;BME280;34335;51.566;6.994;2022-07-18T07:58:08;101670.28;;;25.32;38.68
48553;BME280;34335;51.566;6.994;2022-07-18T08:00:34;101665.81;;;25.51;41.85
48553;BME280;34335;51.566;6.994;2022-07-18T08:03:03;101656.75;;;25.73;38.43
48553;BME280;34335;51.566;6.994;2022-07-18T08:05:31;101663.03;;;25.72;36.33
48553;BME280;34335;51.566;6.994;2022-07-18T08:07:58;101658.88;;;25.84;42.48
48553;BME280;34335;51.566;6.994;2022-07-18T08:10:23;101657.34;;;26.15;36.75
48553;BME280;34335;51.566;6.994;2022-07-18T08:12:49;101651.06;;;26.67;42.14
48553;BME280;34335;51.566;6.994;2022-07-18T08:15:15;101655.34;;;26.70;37.46
48553;BME280;34335;51.566;6.994;2022-07-18T08:17:40;101645.88;;;26.98;40.87
48553;BME280;34335;51.566;6.994;2022-07-18T08:20:06;101647.91;;;27.41;40.52
48553;BME280;34335;51.566;6.994;2022-07-18T08:22:31;101645.50;;;27.20;35.93
48553;BME280;34335;51.566;6.994;2022-07-18T08:24:57;101647.25;;;27.53;39.18
48553;BME280;34335;51.566;6.994;2022-07-18T08:27:22;101646.09;;;27.57;38.74
48553;BME280;34335;51.566;6.994;2022-07-18T08:29:47;101651.41;;;27.73;35.81
48553;BME280;34335;51.566;6.994;2022-07-18T08:32:13;101643.41;;;28.04;38.50
48553;BME280;34335;51.566;6.994;2022-07-18T08:34:38;101647.94;;;27.57;30.72
48553;BME280;34335;51.566;6.994;2022-07-18T08:37:03;101642.56;;;27.87;31.07
48553;BME280;34335;51.566;6.994;2022-07-18T08:39:29;101654.34;;;27.99;31.96
48553;BME280;34335;51.566;6.994;2022-07-18T08:41:55;101648.81;;;28.33;32.12
48553;BME280;34335;51.566;6.994;2022-07-18T08:44:21;101643.06;;;28.24;31.52
48553;BME280;34335;51.566;6.994;2022-07-18T08:46:51;101641.91;;;28.43;33.06
48553;BME280;34335;51.566;6.994;2022-07-18T08:49:17;101643.00;;;28.55;31.26
48553;BME280;34335;51.566;6.994;2022-07-18T08:51:43;101645.28;;;28.61;34.98
48553;BME280;34335;51.566;6.994;2022-07-18T08:54:09;101638.91;;;29.05;35.63
48553;BME280;34335;51.566;6.994;2022-07-18T08:56:35;101632.03;;;29.43;31.42
48553;BME280;34335;51.566;6.994;2022-07-18T08:59:01;101638.88;;;29.75;35.27
48553;BME280;34335;51.566;6.994;2022-07-18T09:01:31;101633.56;;;29.47;29.88
48553;BME280;34335;51.566;6.994;2022-07-18T09:03:56;101630.34;;;29.55;29.60
48553;BME280;34335;51.566;6.994;2022-07-18T09:06:47;101627.91;;;29.52;29.82
48553;BME280;34335;51.566;6.994;2022-07-18T09:09:15;101631.94;;;29.45;28.39
48553;BME280;34335;51.566;6.994;2022-07-18T09:11:50;101634.56;;;29.99;32.20
48553;BME280;34335;51.566;6.994;2022-07-18T09:19:32;101632.72;;;30.65;32.67
48553;BME280;34335;51.566;6.994;2022-07-18T09:22:23;101634.66;;;29.98;29.30
48553;BME280;34335;51.566;6.994;2022-07-18T09:24:56;101639.59;;;30.43;31.80
48553;BME280;34335;51.566;6.994;2022-07-18T09:30:22;101634.22;;;30.56;28.80
48553;BME280;34335;51.566;6.994;2022-07-18T09:35:29;101628.22;;;30.52;25.91
48553;BME280;34335;51.566;6.994;2022-07-18T09:38:01;101623.88;;;30.75;26.47
48553;BME280;34335;51.566;6.994;2022-07-18T09:40:33;101625.94;;;31.09;27.62
48553;BME280;34335;51.566;6.994;2022-07-18T09:43:01;101623.34;;;31.20;28.36
48553;BME280;34335;51.566;6.994;2022-07-18T09:45:38;101631.09;;;31.61;27.37
48553;BME280;34335;51.566;6.994;2022-07-18T09:48:06;101625.66;;;31.74;30.02
48553;BME280;34335;51.566;6.994;2022-07-18T09:50:34;101623.97;;;31.84;32.03
48553;BME280;34335;51.566;6.994;2022-07-18T09:55:32;101618.63;;;32.18;30.03
48553;BME280;34335;51.566;6.994;2022-07-18T09:58:07;101622.25;;;31.23;27.36
48553;BME280;34335;51.566;6.994;2022-07-18T10:00:36;101616.38;;;31.42;25.85
48553;BME280;34335;51.566;6.994;2022-07-18T10:03:04;101625.41;;;32.46;30.64
48553;BME280;34335;51.566;6.994;2022-07-18T10:05:33;101619.19;;;32.46;24.97
48553;BME280;34335;51.566;6.994;2022-07-18T10:07:59;101626.03;;;32.61;27.42
48553;BME280;34335;51.566;6.994;2022-07-18T10:10:27;101614.72;;;33.02;26.46
48553;BME280;34335;51.566;6.994;2022-07-18T10:12:57;101612.03;;;33.02;28.47
48553;BME280;34335;51.566;6.994;2022-07-18T10:15:25;101620.34;;;32.76;29.56
48553;BME280;34335;51.566;6.994;2022-07-18T10:17:51;101615.19;;;33.07;28.06
48553;BME280;34335;51.566;6.994;2022-07-18T10:20:17;101630.81;;;32.46;20.95
48553;BME280;34335;51.566;6.994;2022-07-18T10:22:44;101623.19;;;32.97;24.53
48553;BME280;34335;51.566;6.994;2022-07-18T10:25:11;101608.09;;;33.38;24.97
48553;BME280;34335;51.566;6.994;2022-07-18T10:28:03;101622.97;;;33.33;23.72
48553;BME280;34335;51.566;6.994;2022-07-18T10:32:55;101637.75;;;32.60;24.61
48553;BME280;34335;51.566;6.994;2022-07-18T10:38:25;101621.81;;;33.03;21.88
48553;BME280;34335;51.566;6.994;2022-07-18T10:41:04;101618.22;;;34.00;26.76
48553;BME280;34335;51.566;6.994;2022-07-18T10:43:32;101619.50;;;34.06;22.67
48553;BME280;34335;51.566;6.994;2022-07-18T10:45:59;101620.81;;;33.48;20.63
48553;BME280;34335;51.566;6.994;2022-07-18T10:51:13;101617.69;;;33.85;22.68
48553;BME280;34335;51.566;6.994;2022-07-18T10:59:12;101612.44;;;33.18;20.95
48553;BME280;34335;51.566;6.994;2022-07-18T11:01:56;101608.38;;;33.35;20.59
48553;BME280;34335;51.566;6.994;2022-07-18T11:04:29;101609.25;;;33.78;23.26
48553;BME280;34335;51.566;6.994;2022-07-18T11:07:10;101615.81;;;33.43;20.78
48553;BME280;34335;51.566;6.994;2022-07-18T11:09:44;101612.00;;;33.67;20.07
48553;BME280;34335;51.566;6.994;2022-07-18T11:12:28;101620.78;;;33.15;20.08
48553;BME280;34335;51.566;6.994;2022-07-18T11:15:11;101608.34;;;33.68;20.05
48553;BME280;34335;51.566;6.994;2022-07-18T11:17:56;101601.94;;;34.42;20.73
48553;BME280;34335;51.566;6.994;2022-07-18T11:22:52;101598.97;;;34.14;22.96
48553;BME280;34335;51.566;6.994;2022-07-18T11:25:18;101599.72;;;34.26;21.09
48553;BME280;34335;51.566;6.994;2022-07-18T11:27:44;101587.69;;;33.78;19.79
48553;BME280;34335;51.566;6.994;2022-07-18T11:30:10;101581.13;;;34.64;20.85
48553;BME280;34335;51.566;6.994;2022-07-18T11:32:36;101573.13;;;35.23;22.21
48553;BME280;34335;51.566;6.994;2022-07-18T11:35:02;101566.84;;;35.03;19.05
48553;BME280;34335;51.566;6.994;2022-07-18T11:37:31;101574.69;;;35.45;22.21
48553;BME280;34335;51.566;6.994;2022-07-18T11:40:06;101567.63;;;35.82;21.92
48553;BME280;34335;51.566;6.994;2022-07-18T11:42:38;101569.66;;;35.31;21.63
48553;BME280;34335;51.566;6.994;2022-07-18T11:45:09;101562.16;;;35.24;22.49
48553;BME280;34335;51.566;6.994;2022-07-18T11:47:49;101568.00;;;35.10;22.97
48553;BME280;34335;51.566;6.994;2022-07-18T11:50:17;101568.53;;;35.72;20.99
48553;BME280;34335;51.566;6.994;2022-07-18T11:52:45;101562.28;;;35.33;20.82
48553;BME280;34335;51.566;6.994;2022-07-18T11:55:12;101563.28;;;35.02;19.90
48553;BME280;34335;51.566;6.994;2022-07-18T11:57:37;101559.03;;;35.19;18.72
48553;BME280;34335;51.566;6.994;2022-07-18T12:00:23;101558.63;;;36.01;19.94
48553;BME280;34335;51.566;6.994;2022-07-18T12:02:48;101549.34;;;35.26;18.19
48553;BME280;34335;51.566;6.994;2022-07-18T12:05:14;101539.03;;;36.45;22.03
48553;BME280;34335;51.566;6.994;2022-07-18T12:07:39;101542.63;;;36.08;21.55
48553;BME280;34335;51.566;6.994;2022-07-18T12:10:17;101547.81;;;35.04;19.33
48553;BME280;34335;51.566;6.994;2022-07-18T12:12:42;101543.75;;;35.67;19.95
48553;BME280;34335;51.566;6.994;2022-07-18T12:15:08;101544.63;;;36.43;21.44
48553;BME280;34335;51.566;6.994;2022-07-18T12:17:43;101536.06;;;36.84;21.55
48553;BME280;34335;51.566;6.994;2022-07-18T12:22:36;101538.22;;;35.59;18.00
48553;BME280;34335;51.566;6.994;2022-07-18T12:25:01;101535.81;;;36.03;21.43
48553;BME280;34335;51.566;6.994;2022-07-18T12:27:36;101530.09;;;36.34;19.87
48553;BME280;34335;51.566;6.994;2022-07-18T12:32:55;101540.38;;;34.87;18.89
48553;BME280;34335;51.566;6.994;2022-07-18T12:35:26;101521.19;;;36.88;21.11
48553;BME280;34335;51.566;6.994;2022-07-18T12:37:57;101518.63;;;36.87;20.15
48553;BME280;34335;51.566;6.994;2022-07-18T12:40:38;101511.50;;;37.22;20.23
48553;BME280;34335;51.566;6.994;2022-07-18T12:43:10;101518.41;;;37.16;20.60
48553;BME280;34335;51.566;6.994;2022-07-18T12:45:37;101513.16;;;35.57;18.09
48553;BME280;34335;51.566;6.994;2022-07-18T12:48:03;101502.78;;;37.54;21.83
48553;BME280;34335;51.566;6.994;2022-07-18T12:50:29;101507.09;;;36.67;21.10
48553;BME280;34335;51.566;6.994;2022-07-18T12:52:54;101520.13;;;35.40;19.02
48553;BME280;34335;51.566;6.994;2022-07-18T12:55:19;101507.63;;;35.59;22.18
48553;BME280;34335;51.566;6.994;2022-07-18T12:57:45;101517.19;;;36.00;18.63
48553;BME280;34335;51.566;6.994;2022-07-18T13:00:11;101510.06;;;35.52;21.06
48553;BME280;34335;51.566;6.994;2022-07-18T13:02:36;101498.63;;;36.98;21.87
48553;BME280;34335;51.566;6.994;2022-07-18T13:05:02;101490.25;;;37.88;21.14
48553;BME280;34335;51.566;6.994;2022-07-18T13:07:27;101504.94;;;35.59;20.02
48553;BME280;34335;51.566;6.994;2022-07-18T13:09:52;101497.72;;;37.15;21.31
48553;BME280;34335;51.566;6.994;2022-07-18T13:12:18;101493.31;;;38.53;22.36
48553;BME280;34335;51.566;6.994;2022-07-18T13:14:43;101495.38;;;37.38;22.29
48553;BME280;34335;51.566;6.994;2022-07-18T13:17:08;101475.06;;;38.88;20.36
48553;BME280;34335;51.566;6.994;2022-07-18T13:19:34;101485.06;;;38.11;19.26
48553;BME280;34335;51.566;6.994;2022-07-18T13:21:59;101484.66;;;37.37;19.32
48553;BME280;34335;51.566;6.994;2022-07-18T13:24:25;101484.34;;;37.40;19.47